Alto Paraiso, Brazil
Current Conditions -  °F | °C
As of 6:00 AM on Saturday 25 Oct 2014 (Local Time) from SBPV Reporting Station
Overcast Overcast  
Wind Chill: 73°   Ceiling: 1000
Heat Index: 73°   Visibility: 6mi
Dew Point: 72°   Wind: 0mph
Humidity: 94%   Direction: NA
Pressure: 29.83"   Gusts: NA
Location:  9.71°S, 63.32°W
Report Text: SBPV 251000Z 00000KT 9999 FEW005 BKN010 OVC080 23/22 Q1010
Loading
Personal Weather Stations






























Interactive Weather Map
Tropical Storm Tracking
New forecast layout! Learn more

10-Day Weather Forecast

Advertisements
Track Severe Weather on mobile